Time;durP1;ratioP1;P1;durP2;ratioP2;P2;SDS_P1;SDS_P2;PMS_P1;PMS_P2;Temp;Humidity;BMP_temperature;BMP_pressure;BME280_temperature;BME280_humidity;BME280_pressure;Samples;Min_cycle;Max_cycle;Signal;HPM_P1;HPM_P2
2022/04/28 16:05:20;;;;;;;1.15;0.40;;;;;;;;;;6182533;22;1231508;-52
2022/04/28 16:07:47;;;;;;;1.27;0.45;;;;;;;;;;6235266;23;20048;-52
2022/04/28 16:10:13;;;;;;;3.63;0.63;;;;;;;;;;6237934;23;20372;-50
2022/04/28 16:14:47;;;;;;;0.70;0.20;;;;;;;;;;5050008;28;20414;-50
2022/04/28 16:17:13;;;;;;;0.63;0.32;;;;;;;;;;4845396;28;20153;-49
2022/04/28 16:19:39;;;;;;;1.48;0.50;;;;;;;;;;4990392;28;20133;-45
2022/04/28 16:22:06;;;;;;;1.70;0.68;;;;;;;;;;4989886;28;20885;-58
2022/04/28 16:24:34;;;;;;;1.98;0.30;;;;;;;;;;4971915;28;20128;-49
2022/04/28 16:27:01;;;;;;;2.42;0.20;;;;;;;;;;4988832;28;20104;-49
2022/04/28 16:29:27;;;;;;;0.73;0.43;;;;;;;;;;4108908;28;10000905;-56
2022/04/28 16:31:54;;;;;;;0.60;0.60;;;;;;;;;;4969777;28;20591;-47
2022/04/28 16:34:31;;;;;;;1.83;0.50;;;;;;;;;;4963992;28;20051;-48
2022/04/28 16:36:57;;;;;;;1.83;0.40;;;;;;;;;;4969005;28;20580;-50
2022/04/28 16:39:23;;;;;;;1.00;0.40;;;;;;;;;;4967876;28;20054;-61
2022/04/28 16:55:20;;;;;;;5.85;0.50;;;;;;;;;;4145775;23;10000892;-47
2022/04/28 17:00:29;;;;;;;6.03;0.60;;;;;;;;;;5158927;23;20062;-51
2022/04/28 17:05:40;;;;;;;3.47;0.68;;;;;;;;;;4986411;28;20125;-50
2022/04/28 17:08:07;;;;;;;14.02;0.90;;;;;;;;;;4954735;28;20503;-49
2022/04/28 17:10:33;;;;;;;9.15;0.77;;;;;;;;;;4991378;28;20609;-51
2022/04/28 17:13:00;;;;;;;6.13;0.88;;;;;;;;;;4982438;28;20054;-49
2022/04/28 17:15:27;;;;;;;3.85;0.60;;;;;;;;;;4991990;28;20132;-51
2022/04/28 17:17:53;;;;;;;6.57;0.60;;;;;;;;;;4987821;28;20157;-54
2022/04/28 17:20:19;;;;;;;7.82;1.00;;;;;;;;;;4987306;28;20145;-48
2022/04/28 17:22:46;;;;;;;5.53;0.80;;;;;;;;;;4988001;28;20059;-51
2022/04/28 17:25:12;;;;;;;1.85;0.63;;;;;;;;;;4982407;28;20043;-51
2022/04/28 17:27:39;;;;;;;1.80;0.50;;;;;;;;;;4976810;28;20097;-47
2022/04/28 17:30:06;;;;;;;0.30;0.30;;;;;;;;;;4979809;28;20117;-52
2022/04/28 17:32:33;;;;;;;3.10;0.70;;;;;;;;;;4975016;28;20156;-49
2022/04/28 17:35:00;;;;;;;0.95;0.55;;;;;;;;;;4978084;28;20169;-59
2022/04/28 17:37:27;;;;;;;4.53;0.60;;;;;;;;;;4974204;28;20074;-51
2022/04/28 17:39:53;;;;;;;0.50;0.50;;;;;;;;;;4979574;28;20073;-51
2022/04/28 17:42:19;;;;;;;1.42;0.55;;;;;;;;;;4977189;28;20082;-54
2022/04/28 17:44:46;;;;;;;0.80;0.60;;;;;;;;;;4974590;28;20077;-51
2022/04/28 17:47:14;;;;;;;1.48;0.40;;;;;;;;;;4976073;28;20078;-47
2022/04/28 17:49:40;;;;;;;0.60;0.50;;;;;;;;;;4974100;28;20105;-46
2022/04/28 17:52:07;;;;;;;1.77;0.77;;;;;;;;;;4976422;28;20165;-47
2022/04/28 17:54:33;;;;;;;1.02;0.60;;;;;;;;;;4974674;28;20089;-49
2022/04/28 17:59:56;;;;;;;1.70;0.70;;;;;;;;;;4967763;28;20062;-60
2022/04/28 18:02:26;;;;;;;2.75;0.77;;;;;;;;;;4965769;28;20062;-60
2022/04/28 18:04:54;;;;;;;0.65;0.43;;;;;;;;;;4965085;28;20062;-60
2022/04/28 18:07:20;;;;;;;;;;;;;;;;;;4967478;28;20165;-59
2022/04/28 18:09:47;;;;;;;1.33;0.63;;;;;;;;;;4968092;28;20012;-60
2022/04/28 18:12:14;;;;;;;1.10;0.70;;;;;;;;;;4967159;28;20117;-57
2022/04/28 18:14:40;;;;;;;1.42;0.70;;;;;;;;;;4967308;28;20084;-51
2022/04/28 18:17:13;;;;;;;2.50;0.70;;;;;;;;;;4971907;28;20153;-58
2022/04/28 18:19:39;;;;;;;1.52;0.80;;;;;;;;;;4967684;28;20085;-57
2022/04/28 18:22:06;;;;;;;1.73;0.70;;;;;;;;;;4968566;28;20502;-58
2022/04/28 18:24:32;;;;;;;2.22;0.80;;;;;;;;;;4969552;28;20133;-58
2022/04/28 18:27:00;;;;;;;2.10;0.77;;;;;;;;;;4972611;28;20058;-58
2022/04/28 18:29:28;;;;;;;0.80;0.60;;;;;;;;;;4967826;28;20113;-58
2022/04/28 18:31:55;;;;;;;2.50;0.77;;;;;;;;;;4969394;23;20127;-47
2022/04/28 18:34:28;;;;;;;1.70;0.60;;;;;;;;;;4957816;28;20062;-46
2022/04/28 18:45:17;;;;;;;1.35;0.77;;;;;;;;;;4956280;28;20130;-45
2022/04/28 18:47:45;;;;;;;1.83;0.98;;;;;;;;;;4957681;28;20129;-65
2022/04/28 18:50:12;;;;;;;3.15;1.00;;;;;;;;;;4950392;28;20130;-46
2022/04/28 18:52:42;;;;;;;4.13;0.93;;;;;;;;;;4956226;28;20150;-56
2022/04/28 18:55:13;;;;;;;3.42;0.90;;;;;;;;;;5009548;23;20137;-56
2022/04/28 18:57:46;;;;;;;6.05;1.20;;;;;;;;;;4967884;23;20071;-48
2022/04/28 19:00:27;;;;;;;2.83;1.00;;;;;;;;;;4974873;28;20050;-49
2022/04/28 19:02:56;;;;;;;1.30;0.75;;;;;;;;;;4974828;28;20043;-49
2022/04/28 19:05:30;;;;;;;4.28;0.93;;;;;;;;;;4974666;28;20063;-50
2022/04/28 19:07:58;;;;;;;3.47;1.20;;;;;;;;;;4974673;28;20053;-48
2022/04/28 19:10:25;;;;;;;3.88;0.90;;;;;;;;;;4974643;28;20058;-47
2022/04/28 19:12:59;;;;;;;5.30;0.88;;;;;;;;;;4974624;28;20081;-58
2022/04/28 19:15:28;;;;;;;3.38;1.02;;;;;;;;;;4974625;28;20055;-45
2022/04/28 19:17:54;;;;;;;2.20;0.90;;;;;;;;;;4974531;28;20085;-46
2022/04/28 19:20:21;;;;;;;2.35;0.95;;;;;;;;;;4974373;28;20086;-45
2022/04/28 19:22:47;;;;;;;6.25;1.20;;;;;;;;;;4974283;28;20493;-47
2022/04/28 19:25:13;;;;;;;2.15;1.00;;;;;;;;;;4974512;28;20454;-46
2022/04/28 19:27:46;;;;;;;16.77;1.23;;;;;;;;;;4974388;28;20133;-50
2022/04/28 19:30:13;;;;;;;3.23;0.97;;;;;;;;;;4974213;28;20484;-46
2022/04/28 19:32:40;;;;;;;3.40;1.27;;;;;;;;;;4974263;28;20639;-59
2022/04/28 19:35:15;;;;;;;3.88;1.00;;;;;;;;;;4974251;28;20051;-60
2022/04/28 19:37:42;;;;;;;1.95;1.00;;;;;;;;;;4974149;28;20133;-61
2022/04/28 19:40:10;;;;;;;3.03;0.85;;;;;;;;;;4974054;28;20473;-60
2022/04/28 19:42:36;;;;;;;5.53;1.05;;;;;;;;;;4974092;28;20051;-60
2022/04/28 19:45:04;;;;;;;6.00;1.42;;;;;;;;;;4974128;28;20082;-61
2022/04/28 19:47:30;;;;;;;0.98;0.63;;;;;;;;;;4973707;28;20074;-60
2022/04/28 19:49:57;;;;;;;6.47;1.15;;;;;;;;;;4974017;28;20047;-60
2022/04/28 19:52:24;;;;;;;4.33;1.13;;;;;;;;;;4973962;28;20051;-48
2022/04/28 19:54:52;;;;;;;4.15;1.30;;;;;;;;;;4973807;28;20398;-50
2022/04/28 19:57:35;;;;;;;8.57;1.33;;;;;;;;;;4990218;28;20081;-52
2022/04/28 20:00:02;;;;;;;4.57;1.60;;;;;;;;;;5012958;28;20089;-54
2022/04/28 20:02:35;;;;;;;6.32;1.70;;;;;;;;;;5012923;28;20049;-52
2022/04/28 20:05:03;;;;;;;4.20;1.00;;;;;;;;;;5012878;28;20042;-51
2022/04/28 20:07:30;;;;;;;7.40;1.00;;;;;;;;;;5012864;28;20049;-49
2022/04/28 20:10:04;;;;;;;3.33;1.27;;;;;;;;;;5012820;28;20081;-54
2022/04/28 20:12:31;;;;;;;1.92;0.98;;;;;;;;;;5012622;28;20081;-50
2022/04/28 20:14:58;;;;;;;4.13;0.98;;;;;;;;;;5012670;28;20060;-48
2022/04/28 20:17:31;;;;;;;1.95;0.82;;;;;;;;;;5012671;28;20085;-53
2022/04/28 20:19:57;;;;;;;5.05;1.55;;;;;;;;;;5012759;28;20140;-54
2022/04/28 20:22:24;;;;;;;3.42;0.88;;;;;;;;;;5012556;28;20493;-52
2022/04/28 20:24:59;;;;;;;6.80;1.40;;;;;;;;;;5012646;28;20081;-54
2022/04/28 20:27:25;;;;;;;1.60;0.98;;;;;;;;;;5012658;28;20108;-46
2022/04/28 20:29:52;;;;;;;6.03;1.23;;;;;;;;;;5012718;28;20070;-55
2022/04/28 20:32:25;;;;;;;3.47;1.10;;;;;;;;;;5012672;28;20465;-52
2022/04/28 20:34:51;;;;;;;2.50;0.90;;;;;;;;;;5012469;28;20457;-56
2022/04/28 20:37:19;;;;;;;2.78;1.10;;;;;;;;;;5012440;28;20046;-55
2022/04/28 20:39:53;;;;;;;2.53;1.05;;;;;;;;;;5012465;28;20046;-54
2022/04/28 20:42:19;;;;;;;6.38;1.20;;;;;;;;;;5012432;28;20050;-55
2022/04/28 20:44:47;;;;;;;2.03;1.17;;;;;;;;;;5012513;28;20075;-58
2022/04/28 20:47:19;;;;;;;1.33;0.95;;;;;;;;;;5012521;28;20089;-54
2022/04/28 20:49:46;;;;;;;3.78;0.80;;;;;;;;;;4995058;28;20077;-52
2022/04/28 20:52:14;;;;;;;2.83;1.00;;;;;;;;;;5012362;28;20492;-45
2022/04/28 20:54:42;;;;;;;4.43;1.00;;;;;;;;;;5012209;28;20081;-45
2022/04/28 20:57:23;;;;;;;3.25;1.20;;;;;;;;;;5012067;28;20054;-45
2022/04/28 20:59:56;;;;;;;4.45;1.00;;;;;;;;;;5013476;28;20054;-45
2022/04/28 21:02:22;;;;;;;5.65;0.85;;;;;;;;;;5016120;28;20081;-45
2022/04/28 21:04:50;;;;;;;5.70;1.20;;;;;;;;;;5015982;28;20075;-48
2022/04/28 21:07:23;;;;;;;2.28;1.30;;;;;;;;;;5015968;28;20140;-50
2022/04/28 21:09:49;;;;;;;4.65;1.30;;;;;;;;;;5015884;28;20486;-50
2022/04/28 21:12:16;;;;;;;1.92;1.00;;;;;;;;;;5015752;28;20485;-49
2022/04/28 21:14:49;;;;;;;2.00;0.93;;;;;;;;;;5015747;28;20058;-47
2022/04/28 21:17:16;;;;;;;2.72;0.98;;;;;;;;;;5015866;28;20082;-47
2022/04/28 21:19:42;;;;;;;3.03;1.10;;;;;;;;;;5015642;28;20085;-48
2022/04/28 21:22:15;;;;;;;5.55;1.05;;;;;;;;;;5015745;28;20084;-45
2022/04/28 21:24:41;;;;;;;2.58;0.95;;;;;;;;;;5015458;28;20133;-51
2022/04/28 21:27:09;;;;;;;0.68;0.63;;;;;;;;;;5015408;28;20128;-53
2022/04/28 21:29:46;;;;;;;5.38;2.05;;;;;;;;;;5015431;28;20137;-53
2022/04/28 21:32:14;;;;;;;3.95;1.00;;;;;;;;;;5015488;28;20096;-52
2022/04/28 21:34:41;;;;;;;2.10;0.90;;;;;;;;;;5015335;28;20077;-54
2022/04/28 21:37:15;;;;;;;9.00;1.15;;;;;;;;;;5015257;28;20148;-50
2022/04/28 21:39:42;;;;;;;1.75;0.77;;;;;;;;;;5015566;28;20129;-51
2022/04/28 21:42:11;;;;;;;0.93;0.77;;;;;;;;;;5015450;28;20132;-52
2022/04/28 21:44:38;;;;;;;3.00;0.90;;;;;;;;;;5015244;28;20145;-52
2022/04/28 21:47:05;;;;;;;1.55;0.88;;;;;;;;;;5015319;28;20046;-51
2022/04/28 21:49:32;;;;;;;2.03;1.17;;;;;;;;;;5015064;28;20077;-53
2022/04/28 21:52:05;;;;;;;1.67;0.80;;;;;;;;;;5015340;28;20069;-49
2022/04/28 21:54:32;;;;;;;8.00;1.30;;;;;;;;;;5015110;28;20089;-52
2022/04/28 21:56:59;;;;;;;4.97;1.08;;;;;;;;;;5015729;28;20057;-47
2022/04/28 21:59:43;;;;;;;8.23;1.40;;;;;;;;;;4995674;28;20134;-58
2022/04/28 22:02:09;;;;;;;5.55;1.10;;;;;;;;;;4995455;28;20137;-49
2022/04/28 22:13:10;;;;;;;1.52;1.00;;;;;;;;;;4995134;28;20078;-52
2022/04/28 22:15:43;;;;;;;3.67;1.23;;;;;;;;;;4995043;28;20482;-59
2022/04/28 22:18:10;;;;;;;4.45;1.40;;;;;;;;;;4995202;28;20077;-47
2022/04/28 22:20:36;;;;;;;4.70;1.00;;;;;;;;;;4994975;28;20077;-56
2022/04/28 22:23:09;;;;;;;4.07;1.30;;;;;;;;;;4995043;28;20150;-56
2022/04/28 22:25:36;;;;;;;2.88;1.30;;;;;;;;;;4994968;28;20498;-55
2022/04/28 22:28:02;;;;;;;3.15;1.30;;;;;;;;;;4994862;28;20569;-57
2022/04/28 22:30:29;;;;;;;6.60;1.42;;;;;;;;;;4994815;28;20074;-54
2022/04/28 22:32:56;;;;;;;5.88;1.05;;;;;;;;;;4995007;28;20129;-57
2022/04/28 22:35:24;;;;;;;3.47;0.98;;;;;;;;;;4994740;28;20524;-51
2022/04/28 22:37:58;;;;;;;5.65;1.38;;;;;;;;;;4994781;28;20070;-57
2022/04/28 22:40:24;;;;;;;1.63;0.93;;;;;;;;;;4994826;28;20093;-56
2022/04/28 22:42:50;;;;;;;2.22;1.23;;;;;;;;;;4994678;28;20490;-57
2022/04/28 22:45:19;;;;;;;3.97;1.38;;;;;;;;;;4994597;28;20092;-56
2022/04/28 22:47:46;;;;;;;5.32;1.58;;;;;;;;;;4994623;28;20504;-57
2022/04/28 22:50:12;;;;;;;2.60;1.23;;;;;;;;;;4994469;28;20535;-57
2022/04/28 22:52:42;;;;;;;1.67;0.90;;;;;;;;;;4994395;28;20105;-58
2022/04/28 22:55:09;;;;;;;1.60;1.15;;;;;;;;;;4994392;28;20141;-45
2022/04/28 22:57:49;;;;;;;3.15;2.03;;;;;;;;;;4999360;28;20085;-61
2022/04/28 23:00:23;;;;;;;3.03;1.48;;;;;;;;;;5013955;28;20049;-61
2022/04/28 23:02:56;;;;;;;6.43;1.38;;;;;;;;;;4997481;28;20137;-61
2022/04/28 23:05:23;;;;;;;2.08;1.05;;;;;;;;;;5013930;28;20069;-60
2022/04/28 23:07:50;;;;;;;6.72;1.30;;;;;;;;;;5013770;28;20089;-60
2022/04/28 23:10:23;;;;;;;4.28;1.60;;;;;;;;;;5013813;28;20125;-46
2022/04/28 23:12:51;;;;;;;2.33;1.00;;;;;;;;;;5013681;28;20061;-46
2022/04/28 23:15:17;;;;;;;4.07;1.60;;;;;;;;;;5013563;28;20088;-61
2022/04/28 23:17:57;;;;;;;5.15;1.48;;;;;;;;;;5013634;28;20077;-61
2022/04/28 23:20:30;;;;;;;3.40;1.27;;;;;;;;;;5013645;28;20092;-61
2022/04/28 23:23:04;;;;;;;5.00;1.60;;;;;;;;;;5013092;28;20088;-61
2022/04/28 23:25:30;;;;;;;4.45;1.10;;;;;;;;;;5013478;28;20132;-61
2022/04/28 23:27:58;;;;;;;2.35;1.40;;;;;;;;;;5013455;28;20064;-61
2022/04/28 23:30:32;;;;;;;4.88;1.25;;;;;;;;;;5013335;28;20137;-50
2022/04/28 23:32:58;;;;;;;4.55;1.95;;;;;;;;;;5013443;28;20085;-53
2022/04/28 23:38:21;;;;;;;4.95;1.63;;;;;;;;;;5013342;28;20046;-45
2022/04/28 23:40:48;;;;;;;3.33;1.52;;;;;;;;;;5013276;28;20166;-47
2022/04/28 23:43:14;;;;;;;3.60;1.23;;;;;;;;;;5013197;28;20477;-47
2022/04/28 23:45:41;;;;;;;3.13;1.45;;;;;;;;;;5013135;28;20100;-46
2022/04/28 23:48:10;;;;;;;2.38;1.38;;;;;;;;;;5013195;28;20050;-50
2022/04/28 23:50:37;;;;;;;4.13;1.35;;;;;;;;;;5012941;28;20057;-45
2022/04/28 23:55:55;;;;;;;4.18;1.73;;;;;;;;;;5012998;28;20477;-45
2022/04/28 23:58:35;;;;;;;6.10;1.45;;;;;;;;;;5013385;28;20083;-45
